sensor_id;sensor_type;location;lat;lon;timestamp;P1;durP1;ratioP1;P2;durP2;ratioP2
840;SDS011;406;48.566;13.450;2023-03-19T00:00:30;18.00;;;12.63;;
840;SDS011;406;48.566;13.450;2023-03-19T00:02:57;17.63;;;12.23;;
840;SDS011;406;48.566;13.450;2023-03-19T00:05:24;19.57;;;14.03;;
840;SDS011;406;48.566;13.450;2023-03-19T00:07:51;13.83;;;9.30;;
840;SDS011;406;48.566;13.450;2023-03-19T00:10:17;16.83;;;12.20;;
840;SDS011;406;48.566;13.450;2023-03-19T00:12:44;18.90;;;12.63;;
840;SDS011;406;48.566;13.450;2023-03-19T00:15:10;15.63;;;11.67;;
840;SDS011;406;48.566;13.450;2023-03-19T00:17:40;19.17;;;11.57;;
840;SDS011;406;48.566;13.450;2023-03-19T00:20:08;16.10;;;11.80;;
840;SDS011;406;48.566;13.450;2023-03-19T00:22:36;19.47;;;13.37;;
840;SDS011;406;48.566;13.450;2023-03-19T00:25:02;16.90;;;9.67;;
840;SDS011;406;48.566;13.450;2023-03-19T00:27:29;16.57;;;12.50;;
840;SDS011;406;48.566;13.450;2023-03-19T00:29:56;13.50;;;11.03;;
840;SDS011;406;48.566;13.450;2023-03-19T00:32:22;15.57;;;10.77;;
840;SDS011;406;48.566;13.450;2023-03-19T00:34:49;19.60;;;12.27;;
840;SDS011;406;48.566;13.450;2023-03-19T00:37:17;22.17;;;12.37;;
840;SDS011;406;48.566;13.450;2023-03-19T00:39:44;17.10;;;11.40;;
840;SDS011;406;48.566;13.450;2023-03-19T00:42:10;18.07;;;12.33;;
840;SDS011;406;48.566;13.450;2023-03-19T00:44:37;17.43;;;12.00;;
840;SDS011;406;48.566;13.450;2023-03-19T00:47:03;17.27;;;11.60;;
840;SDS011;406;48.566;13.450;2023-03-19T00:49:32;18.53;;;12.10;;
840;SDS011;406;48.566;13.450;2023-03-19T00:51:58;15.87;;;12.03;;
840;SDS011;406;48.566;13.450;2023-03-19T00:54:24;17.87;;;11.47;;
840;SDS011;406;48.566;13.450;2023-03-19T00:56:51;15.03;;;10.70;;
840;SDS011;406;48.566;13.450;2023-03-19T00:59:18;18.07;;;12.10;;
840;SDS011;406;48.566;13.450;2023-03-19T01:01:44;17.57;;;12.27;;
840;SDS011;406;48.566;13.450;2023-03-19T01:04:11;21.00;;;12.53;;
840;SDS011;406;48.566;13.450;2023-03-19T01:06:38;16.97;;;10.93;;
840;SDS011;406;48.566;13.450;2023-03-19T01:09:04;18.50;;;10.50;;
840;SDS011;406;48.566;13.450;2023-03-19T01:11:32;16.80;;;11.80;;
840;SDS011;406;48.566;13.450;2023-03-19T01:13:59;16.50;;;10.87;;
840;SDS011;406;48.566;13.450;2023-03-19T01:16:25;16.80;;;11.10;;
840;SDS011;406;48.566;13.450;2023-03-19T01:18:52;15.83;;;11.60;;
840;SDS011;406;48.566;13.450;2023-03-19T01:21:19;14.37;;;10.97;;
840;SDS011;406;48.566;13.450;2023-03-19T01:23:47;14.50;;;11.97;;
840;SDS011;406;48.566;13.450;2023-03-19T01:26:14;18.27;;;13.00;;
840;SDS011;406;48.566;13.450;2023-03-19T01:28:42;16.60;;;12.23;;
840;SDS011;406;48.566;13.450;2023-03-19T01:31:09;16.13;;;11.67;;
840;SDS011;406;48.566;13.450;2023-03-19T01:34:11;16.33;;;10.53;;
840;SDS011;406;48.566;13.450;2023-03-19T01:36:54;17.63;;;11.33;;
840;SDS011;406;48.566;13.450;2023-03-19T01:39:28;17.90;;;10.90;;
840;SDS011;406;48.566;13.450;2023-03-19T01:41:59;17.10;;;10.60;;
840;SDS011;406;48.566;13.450;2023-03-19T01:44:50;19.27;;;12.30;;
840;SDS011;406;48.566;13.450;2023-03-19T01:50:24;16.40;;;12.30;;
840;SDS011;406;48.566;13.450;2023-03-19T01:53:19;16.40;;;11.60;;
840;SDS011;406;48.566;13.450;2023-03-19T01:55:54;14.50;;;10.37;;
840;SDS011;406;48.566;13.450;2023-03-19T01:58:36;15.60;;;11.33;;
840;SDS011;406;48.566;13.450;2023-03-19T02:01:28;15.20;;;12.13;;
840;SDS011;406;48.566;13.450;2023-03-19T02:03:56;16.13;;;10.67;;
840;SDS011;406;48.566;13.450;2023-03-19T02:06:27;18.00;;;12.17;;
840;SDS011;406;48.566;13.450;2023-03-19T02:08:55;19.13;;;12.23;;
840;SDS011;406;48.566;13.450;2023-03-19T02:11:23;16.80;;;11.63;;
840;SDS011;406;48.566;13.450;2023-03-19T02:13:51;13.73;;;10.33;;
840;SDS011;406;48.566;13.450;2023-03-19T02:16:18;13.73;;;10.33;;
840;SDS011;406;48.566;13.450;2023-03-19T02:18:44;17.60;;;11.10;;
840;SDS011;406;48.566;13.450;2023-03-19T02:21:14;17.13;;;12.50;;
840;SDS011;406;48.566;13.450;2023-03-19T02:26:49;16.03;;;13.20;;
840;SDS011;406;48.566;13.450;2023-03-19T02:29:16;14.97;;;10.90;;
840;SDS011;406;48.566;13.450;2023-03-19T02:31:44;14.67;;;10.80;;
840;SDS011;406;48.566;13.450;2023-03-19T02:37:09;13.47;;;10.30;;
840;SDS011;406;48.566;13.450;2023-03-19T02:42:30;16.23;;;10.83;;
840;SDS011;406;48.566;13.450;2023-03-19T02:44:57;15.37;;;11.53;;
840;SDS011;406;48.566;13.450;2023-03-19T02:47:24;15.60;;;10.10;;
840;SDS011;406;48.566;13.450;2023-03-19T02:49:51;13.37;;;10.70;;
840;SDS011;406;48.566;13.450;2023-03-19T02:52:18;15.77;;;10.70;;
840;SDS011;406;48.566;13.450;2023-03-19T02:54:44;16.23;;;11.93;;
840;SDS011;406;48.566;13.450;2023-03-19T02:57:11;15.00;;;10.60;;
840;SDS011;406;48.566;13.450;2023-03-19T02:59:38;13.90;;;10.47;;
840;SDS011;406;48.566;13.450;2023-03-19T03:02:05;15.33;;;10.50;;
840;SDS011;406;48.566;13.450;2023-03-19T03:04:32;18.73;;;11.70;;
840;SDS011;406;48.566;13.450;2023-03-19T03:06:59;12.97;;;10.23;;
840;SDS011;406;48.566;13.450;2023-03-19T03:09:26;19.43;;;11.27;;
840;SDS011;406;48.566;13.450;2023-03-19T03:11:52;16.93;;;12.40;;
840;SDS011;406;48.566;13.450;2023-03-19T03:14:19;17.90;;;12.47;;
840;SDS011;406;48.566;13.450;2023-03-19T03:16:45;16.73;;;10.60;;
840;SDS011;406;48.566;13.450;2023-03-19T03:19:12;19.60;;;11.70;;
840;SDS011;406;48.566;13.450;2023-03-19T03:21:39;13.67;;;10.43;;
840;SDS011;406;48.566;13.450;2023-03-19T03:24:06;14.63;;;10.77;;
840;SDS011;406;48.566;13.450;2023-03-19T03:26:33;25.13;;;12.97;;
840;SDS011;406;48.566;13.450;2023-03-19T03:29:01;12.53;;;9.23;;
840;SDS011;406;48.566;13.450;2023-03-19T03:31:27;15.73;;;13.03;;
840;SDS011;406;48.566;13.450;2023-03-19T03:33:55;19.13;;;11.37;;
840;SDS011;406;48.566;13.450;2023-03-19T03:36:21;16.17;;;11.30;;
840;SDS011;406;48.566;13.450;2023-03-19T03:38:48;18.73;;;10.87;;
840;SDS011;406;48.566;13.450;2023-03-19T03:41:15;17.20;;;10.17;;
840;SDS011;406;48.566;13.450;2023-03-19T03:43:41;16.30;;;11.80;;
840;SDS011;406;48.566;13.450;2023-03-19T03:46:08;14.40;;;10.30;;
840;SDS011;406;48.566;13.450;2023-03-19T03:48:34;19.43;;;11.27;;
840;SDS011;406;48.566;13.450;2023-03-19T03:51:01;18.93;;;11.17;;
840;SDS011;406;48.566;13.450;2023-03-19T03:53:28;20.83;;;10.83;;
840;SDS011;406;48.566;13.450;2023-03-19T03:55:55;17.03;;;11.10;;
840;SDS011;406;48.566;13.450;2023-03-19T03:58:24;17.97;;;13.13;;
840;SDS011;406;48.566;13.450;2023-03-19T04:00:51;14.83;;;10.23;;
840;SDS011;406;48.566;13.450;2023-03-19T04:03:17;17.07;;;11.60;;
840;SDS011;406;48.566;13.450;2023-03-19T04:05:44;14.30;;;11.27;;
840;SDS011;406;48.566;13.450;2023-03-19T04:08:11;14.83;;;11.30;;
840;SDS011;406;48.566;13.450;2023-03-19T04:10:39;23.73;;;10.67;;
840;SDS011;406;48.566;13.450;2023-03-19T04:13:07;13.23;;;9.87;;
840;SDS011;406;48.566;13.450;2023-03-19T04:15:34;13.53;;;10.90;;
840;SDS011;406;48.566;13.450;2023-03-19T04:18:01;18.93;;;12.00;;
840;SDS011;406;48.566;13.450;2023-03-19T04:20:28;15.37;;;11.60;;
840;SDS011;406;48.566;13.450;2023-03-19T04:22:55;16.73;;;11.50;;
840;SDS011;406;48.566;13.450;2023-03-19T04:25:22;17.43;;;11.40;;
840;SDS011;406;48.566;13.450;2023-03-19T04:27:48;17.17;;;11.60;;
840;SDS011;406;48.566;13.450;2023-03-19T04:30:15;16.17;;;10.50;;
840;SDS011;406;48.566;13.450;2023-03-19T04:32:41;15.23;;;11.60;;
840;SDS011;406;48.566;13.450;2023-03-19T04:35:09;16.50;;;10.23;;
840;SDS011;406;48.566;13.450;2023-03-19T04:37:37;16.40;;;13.43;;
840;SDS011;406;48.566;13.450;2023-03-19T04:40:04;16.63;;;12.17;;
840;SDS011;406;48.566;13.450;2023-03-19T04:42:33;15.17;;;11.83;;
840;SDS011;406;48.566;13.450;2023-03-19T04:45:05;17.90;;;10.90;;
840;SDS011;406;48.566;13.450;2023-03-19T04:47:33;14.53;;;11.03;;
840;SDS011;406;48.566;13.450;2023-03-19T04:49:59;22.93;;;12.57;;
840;SDS011;406;48.566;13.450;2023-03-19T04:52:27;19.27;;;11.37;;
840;SDS011;406;48.566;13.450;2023-03-19T04:54:55;13.20;;;10.60;;
840;SDS011;406;48.566;13.450;2023-03-19T04:57:21;16.90;;;11.73;;
840;SDS011;406;48.566;13.450;2023-03-19T04:59:50;17.60;;;11.80;;
840;SDS011;406;48.566;13.450;2023-03-19T05:02:19;16.13;;;10.63;;
840;SDS011;406;48.566;13.450;2023-03-19T05:04:46;15.20;;;10.20;;
840;SDS011;406;48.566;13.450;2023-03-19T05:07:13;16.93;;;11.70;;
840;SDS011;406;48.566;13.450;2023-03-19T05:09:40;18.40;;;12.10;;
840;SDS011;406;48.566;13.450;2023-03-19T05:12:09;18.33;;;10.53;;
840;SDS011;406;48.566;13.450;2023-03-19T05:14:41;14.70;;;11.50;;
840;SDS011;406;48.566;13.450;2023-03-19T05:17:26;18.20;;;10.87;;
840;SDS011;406;48.566;13.450;2023-03-19T05:20:12;18.50;;;10.63;;
840;SDS011;406;48.566;13.450;2023-03-19T05:22:46;22.40;;;11.03;;
840;SDS011;406;48.566;13.450;2023-03-19T05:25:14;16.80;;;10.17;;
840;SDS011;406;48.566;13.450;2023-03-19T05:27:42;17.57;;;11.63;;
840;SDS011;406;48.566;13.450;2023-03-19T05:30:15;17.50;;;11.90;;
840;SDS011;406;48.566;13.450;2023-03-19T05:32:46;15.40;;;10.47;;
840;SDS011;406;48.566;13.450;2023-03-19T05:35:23;22.30;;;11.70;;
840;SDS011;406;48.566;13.450;2023-03-19T05:37:50;18.07;;;12.23;;
840;SDS011;406;48.566;13.450;2023-03-19T05:40:17;17.93;;;11.43;;
840;SDS011;406;48.566;13.450;2023-03-19T05:42:45;18.77;;;12.10;;
840;SDS011;406;48.566;13.450;2023-03-19T05:45:13;15.73;;;9.70;;
840;SDS011;406;48.566;13.450;2023-03-19T05:47:47;17.07;;;10.33;;
840;SDS011;406;48.566;13.450;2023-03-19T05:50:18;19.40;;;12.60;;
840;SDS011;406;48.566;13.450;2023-03-19T05:53:05;16.43;;;11.80;;
840;SDS011;406;48.566;13.450;2023-03-19T05:55:34;16.43;;;12.57;;
840;SDS011;406;48.566;13.450;2023-03-19T05:58:06;17.33;;;10.53;;
840;SDS011;406;48.566;13.450;2023-03-19T06:00:33;15.60;;;11.10;;
840;SDS011;406;48.566;13.450;2023-03-19T06:03:00;20.23;;;11.97;;
840;SDS011;406;48.566;13.450;2023-03-19T06:05:42;19.73;;;11.90;;
840;SDS011;406;48.566;13.450;2023-03-19T06:08:23;13.47;;;11.77;;
840;SDS011;406;48.566;13.450;2023-03-19T06:11:01;14.07;;;10.53;;
840;SDS011;406;48.566;13.450;2023-03-19T06:13:28;17.53;;;12.03;;
840;SDS011;406;48.566;13.450;2023-03-19T06:15:57;14.93;;;10.43;;
840;SDS011;406;48.566;13.450;2023-03-19T06:18:29;18.60;;;12.63;;
840;SDS011;406;48.566;13.450;2023-03-19T06:20:58;14.30;;;11.43;;
840;SDS011;406;48.566;13.450;2023-03-19T06:23:24;16.10;;;10.60;;
840;SDS011;406;48.566;13.450;2023-03-19T06:25:51;17.03;;;10.47;;
840;SDS011;406;48.566;13.450;2023-03-19T06:28:19;17.23;;;11.13;;
840;SDS011;406;48.566;13.450;2023-03-19T06:30:47;15.27;;;10.80;;
840;SDS011;406;48.566;13.450;2023-03-19T06:33:45;17.40;;;11.10;;
840;SDS011;406;48.566;13.450;2023-03-19T06:36:12;14.63;;;11.37;;
840;SDS011;406;48.566;13.450;2023-03-19T06:38:38;18.57;;;11.90;;
840;SDS011;406;48.566;13.450;2023-03-19T06:41:05;16.90;;;11.80;;
840;SDS011;406;48.566;13.450;2023-03-19T06:43:32;15.20;;;10.60;;
840;SDS011;406;48.566;13.450;2023-03-19T06:46:02;16.97;;;10.77;;
840;SDS011;406;48.566;13.450;2023-03-19T06:48:29;20.67;;;11.73;;
840;SDS011;406;48.566;13.450;2023-03-19T06:50:56;13.50;;;11.00;;
840;SDS011;406;48.566;13.450;2023-03-19T06:53:22;15.80;;;10.90;;
840;SDS011;406;48.566;13.450;2023-03-19T06:55:49;16.60;;;11.10;;
840;SDS011;406;48.566;13.450;2023-03-19T06:58:15;13.03;;;10.57;;
840;SDS011;406;48.566;13.450;2023-03-19T07:00:42;15.73;;;11.20;;
840;SDS011;406;48.566;13.450;2023-03-19T07:03:09;14.70;;;10.77;;
840;SDS011;406;48.566;13.450;2023-03-19T07:05:35;12.80;;;10.33;;
840;SDS011;406;48.566;13.450;2023-03-19T07:08:02;12.50;;;9.90;;
840;SDS011;406;48.566;13.450;2023-03-19T07:10:29;14.10;;;11.20;;
840;SDS011;406;48.566;13.450;2023-03-19T07:12:55;16.00;;;10.83;;
840;SDS011;406;48.566;13.450;2023-03-19T07:15:22;15.23;;;9.40;;
840;SDS011;406;48.566;13.450;2023-03-19T07:17:48;15.37;;;10.60;;
840;SDS011;406;48.566;13.450;2023-03-19T07:20:15;13.90;;;9.80;;
840;SDS011;406;48.566;13.450;2023-03-19T07:22:42;12.80;;;10.20;;
840;SDS011;406;48.566;13.450;2023-03-19T07:25:08;15.10;;;9.23;;
840;SDS011;406;48.566;13.450;2023-03-19T07:27:35;17.03;;;11.97;;
840;SDS011;406;48.566;13.450;2023-03-19T07:30:01;13.80;;;10.00;;
840;SDS011;406;48.566;13.450;2023-03-19T07:32:28;15.03;;;11.03;;
840;SDS011;406;48.566;13.450;2023-03-19T07:34:54;14.87;;;11.23;;
840;SDS011;406;48.566;13.450;2023-03-19T07:37:21;14.97;;;11.50;;
840;SDS011;406;48.566;13.450;2023-03-19T07:39:47;15.33;;;10.40;;
840;SDS011;406;48.566;13.450;2023-03-19T07:42:14;17.23;;;11.00;;
840;SDS011;406;48.566;13.450;2023-03-19T07:44:41;13.00;;;9.23;;
840;SDS011;406;48.566;13.450;2023-03-19T07:47:07;12.77;;;10.23;;
840;SDS011;406;48.566;13.450;2023-03-19T07:49:51;14.70;;;11.00;;
840;SDS011;406;48.566;13.450;2023-03-19T07:52:18;16.83;;;11.37;;
840;SDS011;406;48.566;13.450;2023-03-19T07:54:44;13.60;;;10.87;;
840;SDS011;406;48.566;13.450;2023-03-19T07:57:11;11.57;;;9.40;;
840;SDS011;406;48.566;13.450;2023-03-19T07:59:38;10.97;;;9.63;;
840;SDS011;406;48.566;13.450;2023-03-19T08:02:08;13.57;;;10.40;;
840;SDS011;406;48.566;13.450;2023-03-19T08:04:37;12.80;;;10.53;;
840;SDS011;406;48.566;13.450;2023-03-19T08:07:04;13.37;;;9.00;;
840;SDS011;406;48.566;13.450;2023-03-19T08:09:32;11.50;;;8.50;;
840;SDS011;406;48.566;13.450;2023-03-19T08:11:59;11.63;;;8.63;;
840;SDS011;406;48.566;13.450;2023-03-19T08:14:26;13.47;;;10.50;;
840;SDS011;406;48.566;13.450;2023-03-19T08:16:52;15.27;;;9.60;;
840;SDS011;406;48.566;13.450;2023-03-19T08:19:19;11.87;;;10.27;;
840;SDS011;406;48.566;13.450;2023-03-19T08:21:45;12.90;;;10.03;;
840;SDS011;406;48.566;13.450;2023-03-19T08:24:12;11.20;;;8.87;;
840;SDS011;406;48.566;13.450;2023-03-19T08:26:39;10.17;;;9.13;;
840;SDS011;406;48.566;13.450;2023-03-19T08:29:05;13.00;;;10.27;;
840;SDS011;406;48.566;13.450;2023-03-19T08:31:32;14.37;;;11.10;;
840;SDS011;406;48.566;13.450;2023-03-19T08:33:59;13.80;;;9.33;;
840;SDS011;406;48.566;13.450;2023-03-19T08:36:28;15.00;;;10.10;;
840;SDS011;406;48.566;13.450;2023-03-19T08:38:54;11.77;;;10.10;;
840;SDS011;406;48.566;13.450;2023-03-19T08:41:21;12.63;;;10.27;;
840;SDS011;406;48.566;13.450;2023-03-19T08:43:48;10.30;;;9.30;;
840;SDS011;406;48.566;13.450;2023-03-19T08:46:15;14.37;;;10.27;;
840;SDS011;406;48.566;13.450;2023-03-19T08:48:42;14.73;;;9.47;;
840;SDS011;406;48.566;13.450;2023-03-19T08:51:09;12.17;;;9.20;;
840;SDS011;406;48.566;13.450;2023-03-19T08:53:35;15.43;;;10.17;;
840;SDS011;406;48.566;13.450;2023-03-19T08:56:03;14.60;;;9.67;;
840;SDS011;406;48.566;13.450;2023-03-19T08:58:31;13.43;;;10.13;;
840;SDS011;406;48.566;13.450;2023-03-19T09:01:02;12.13;;;9.93;;
840;SDS011;406;48.566;13.450;2023-03-19T09:03:29;12.57;;;10.67;;
840;SDS011;406;48.566;13.450;2023-03-19T09:05:58;16.43;;;10.33;;
840;SDS011;406;48.566;13.450;2023-03-19T09:08:25;11.17;;;10.00;;
840;SDS011;406;48.566;13.450;2023-03-19T09:10:53;12.67;;;10.33;;
840;SDS011;406;48.566;13.450;2023-03-19T09:13:20;12.73;;;10.90;;
840;SDS011;406;48.566;13.450;2023-03-19T09:15:47;13.10;;;10.80;;
840;SDS011;406;48.566;13.450;2023-03-19T09:18:14;13.77;;;10.60;;
840;SDS011;406;48.566;13.450;2023-03-19T09:20:41;13.03;;;10.70;;
840;SDS011;406;48.566;13.450;2023-03-19T09:23:08;13.43;;;12.00;;
840;SDS011;406;48.566;13.450;2023-03-19T09:25:34;15.70;;;11.20;;
840;SDS011;406;48.566;13.450;2023-03-19T09:28:01;14.40;;;10.70;;
840;SDS011;406;48.566;13.450;2023-03-19T09:30:28;12.73;;;10.40;;
840;SDS011;406;48.566;13.450;2023-03-19T09:32:54;12.97;;;11.63;;
840;SDS011;406;48.566;13.450;2023-03-19T09:35:21;13.83;;;11.17;;
840;SDS011;406;48.566;13.450;2023-03-19T09:37:48;15.37;;;11.87;;
840;SDS011;406;48.566;13.450;2023-03-19T09:40:27;13.27;;;11.97;;
840;SDS011;406;48.566;13.450;2023-03-19T09:45:55;12.93;;;11.50;;
840;SDS011;406;48.566;13.450;2023-03-19T09:48:28;19.80;;;11.93;;
840;SDS011;406;48.566;13.450;2023-03-19T09:51:20;13.90;;;10.60;;
840;SDS011;406;48.566;13.450;2023-03-19T09:54:35;12.67;;;10.37;;
840;SDS011;406;48.566;13.450;2023-03-19T09:56:44;14.70;;;11.27;;
840;SDS011;406;48.566;13.450;2023-03-19T09:59:11;17.53;;;10.73;;
840;SDS011;406;48.566;13.450;2023-03-19T10:01:37;18.40;;;11.27;;
840;SDS011;406;48.566;13.450;2023-03-19T10:06:52;11.93;;;10.60;;
840;SDS011;406;48.566;13.450;2023-03-19T10:09:34;11.70;;;9.93;;
840;SDS011;406;48.566;13.450;2023-03-19T10:12:11;14.77;;;10.53;;
840;SDS011;406;48.566;13.450;2023-03-19T10:23:28;14.03;;;11.27;;
840;SDS011;406;48.566;13.450;2023-03-19T10:26:20;14.47;;;10.97;;
840;SDS011;406;48.566;13.450;2023-03-19T10:29:15;13.60;;;11.13;;
840;SDS011;406;48.566;13.450;2023-03-19T10:34:42;24.80;;;11.30;;
840;SDS011;406;48.566;13.450;2023-03-19T10:37:16;14.40;;;11.57;;
840;SDS011;406;48.566;13.450;2023-03-19T10:39:46;12.10;;;10.80;;
840;SDS011;406;48.566;13.450;2023-03-19T10:48:04;13.60;;;10.80;;
840;SDS011;406;48.566;13.450;2023-03-19T10:50:35;13.00;;;11.60;;
840;SDS011;406;48.566;13.450;2023-03-19T10:55:50;17.03;;;13.00;;
840;SDS011;406;48.566;13.450;2023-03-19T10:58:22;14.63;;;13.13;;
840;SDS011;406;48.566;13.450;2023-03-19T11:00:57;14.80;;;13.30;;
840;SDS011;406;48.566;13.450;2023-03-19T11:03:36;17.17;;;13.37;;
840;SDS011;406;48.566;13.450;2023-03-19T11:06:21;14.73;;;13.20;;
840;SDS011;406;48.566;13.450;2023-03-19T11:08:52;14.70;;;13.10;;
840;SDS011;406;48.566;13.450;2023-03-19T11:11:34;19.27;;;13.70;;
840;SDS011;406;48.566;13.450;2023-03-19T11:14:06;16.30;;;13.03;;
840;SDS011;406;48.566;13.450;2023-03-19T11:19:24;15.87;;;12.63;;
840;SDS011;406;48.566;13.450;2023-03-19T11:22:01;17.60;;;12.93;;
840;SDS011;406;48.566;13.450;2023-03-19T11:24:31;15.67;;;13.33;;
840;SDS011;406;48.566;13.450;2023-03-19T11:26:59;15.43;;;12.17;;
840;SDS011;406;48.566;13.450;2023-03-19T11:29:26;17.27;;;13.30;;
840;SDS011;406;48.566;13.450;2023-03-19T11:35:05;15.27;;;13.37;;
840;SDS011;406;48.566;13.450;2023-03-19T11:40:20;15.87;;;12.77;;
840;SDS011;406;48.566;13.450;2023-03-19T11:48:28;17.53;;;11.40;;
840;SDS011;406;48.566;13.450;2023-03-19T11:56:30;16.40;;;11.53;;
840;SDS011;406;48.566;13.450;2023-03-19T11:59:11;13.70;;;11.63;;
840;SDS011;406;48.566;13.450;2023-03-19T12:04:48;14.20;;;11.50;;
840;SDS011;406;48.566;13.450;2023-03-19T12:12:48;13.20;;;11.83;;
840;SDS011;406;48.566;13.450;2023-03-19T12:20:51;14.03;;;11.43;;
840;SDS011;406;48.566;13.450;2023-03-19T12:31:56;15.17;;;10.67;;
840;SDS011;406;48.566;13.450;2023-03-19T12:34:32;14.37;;;11.00;;
840;SDS011;406;48.566;13.450;2023-03-19T12:37:12;13.97;;;10.33;;
840;SDS011;406;48.566;13.450;2023-03-19T12:42:40;16.20;;;11.50;;
840;SDS011;406;48.566;13.450;2023-03-19T12:45:25;12.73;;;11.43;;
840;SDS011;406;48.566;13.450;2023-03-19T12:48:01;14.83;;;10.53;;
840;SDS011;406;48.566;13.450;2023-03-19T12:50:35;15.63;;;11.93;;
840;SDS011;406;48.566;13.450;2023-03-19T12:53:04;19.23;;;12.20;;
840;SDS011;406;48.566;13.450;2023-03-19T12:55:36;14.07;;;10.77;;
840;SDS011;406;48.566;13.450;2023-03-19T12:58:17;19.03;;;12.20;;
840;SDS011;406;48.566;13.450;2023-03-19T13:03:20;13.13;;;11.73;;
840;SDS011;406;48.566;13.450;2023-03-19T13:05:54;12.83;;;11.17;;
840;SDS011;406;48.566;13.450;2023-03-19T13:08:28;16.10;;;12.83;;
840;SDS011;406;48.566;13.450;2023-03-19T13:11:00;17.53;;;13.23;;
840;SDS011;406;48.566;13.450;2023-03-19T13:13:47;17.40;;;13.70;;
840;SDS011;406;48.566;13.450;2023-03-19T13:16:29;15.70;;;12.83;;
840;SDS011;406;48.566;13.450;2023-03-19T13:19:17;16.77;;;12.10;;
840;SDS011;406;48.566;13.450;2023-03-19T13:21:51;13.63;;;12.17;;
840;SDS011;406;48.566;13.450;2023-03-19T13:24:20;16.30;;;12.43;;
840;SDS011;406;48.566;13.450;2023-03-19T13:26:50;15.67;;;12.53;;
840;SDS011;406;48.566;13.450;2023-03-19T13:29:19;11.53;;;10.20;;
840;SDS011;406;48.566;13.450;2023-03-19T13:31:47;19.97;;;12.87;;
840;SDS011;406;48.566;13.450;2023-03-19T13:39:42;13.67;;;10.83;;
840;SDS011;406;48.566;13.450;2023-03-19T13:47:56;15.80;;;11.37;;
840;SDS011;406;48.566;13.450;2023-03-19T13:50:25;14.07;;;10.80;;
840;SDS011;406;48.566;13.450;2023-03-19T13:53:10;13.50;;;10.80;;
840;SDS011;406;48.566;13.450;2023-03-19T13:55:49;13.17;;;10.20;;
840;SDS011;406;48.566;13.450;2023-03-19T13:58:20;12.10;;;10.10;;
840;SDS011;406;48.566;13.450;2023-03-19T14:01:08;13.60;;;10.23;;
840;SDS011;406;48.566;13.450;2023-03-19T14:03:50;11.30;;;9.93;;
840;SDS011;406;48.566;13.450;2023-03-19T14:06:29;11.93;;;9.77;;
840;SDS011;406;48.566;13.450;2023-03-19T14:08:58;12.70;;;10.47;;
840;SDS011;406;48.566;13.450;2023-03-19T14:11:29;10.80;;;9.53;;
840;SDS011;406;48.566;13.450;2023-03-19T14:14:02;15.97;;;11.23;;
840;SDS011;406;48.566;13.450;2023-03-19T14:16:34;12.33;;;10.73;;
840;SDS011;406;48.566;13.450;2023-03-19T14:19:03;15.33;;;11.70;;
840;SDS011;406;48.566;13.450;2023-03-19T14:24:26;13.67;;;9.83;;
840;SDS011;406;48.566;13.450;2023-03-19T14:27:15;12.57;;;10.23;;
840;SDS011;406;48.566;13.450;2023-03-19T14:29:44;11.30;;;9.70;;
840;SDS011;406;48.566;13.450;2023-03-19T14:32:15;10.57;;;9.47;;
840;SDS011;406;48.566;13.450;2023-03-19T14:34:44;12.70;;;11.07;;
840;SDS011;406;48.566;13.450;2023-03-19T14:37:15;15.73;;;10.57;;
840;SDS011;406;48.566;13.450;2023-03-19T14:39:42;10.70;;;9.37;;
840;SDS011;406;48.566;13.450;2023-03-19T14:42:22;11.43;;;8.70;;
840;SDS011;406;48.566;13.450;2023-03-19T14:45:13;8.57;;;7.67;;
840;SDS011;406;48.566;13.450;2023-03-19T14:47:59;9.77;;;6.80;;
840;SDS011;406;48.566;13.450;2023-03-19T14:56:02;8.43;;;7.13;;
840;SDS011;406;48.566;13.450;2023-03-19T14:58:37;7.50;;;6.80;;
840;SDS011;406;48.566;13.450;2023-03-19T15:01:12;8.37;;;6.63;;
840;SDS011;406;48.566;13.450;2023-03-19T15:03:39;7.97;;;6.10;;
840;SDS011;406;48.566;13.450;2023-03-19T15:06:06;8.23;;;7.43;;
840;SDS011;406;48.566;13.450;2023-03-19T15:08:37;8.60;;;7.10;;
840;SDS011;406;48.566;13.450;2023-03-19T15:13:53;7.43;;;5.93;;
840;SDS011;406;48.566;13.450;2023-03-19T15:16:52;7.73;;;7.00;;
840;SDS011;406;48.566;13.450;2023-03-19T15:19:27;8.03;;;6.70;;
840;SDS011;406;48.566;13.450;2023-03-19T15:22:02;10.90;;;6.63;;
840;SDS011;406;48.566;13.450;2023-03-19T15:24:29;7.50;;;6.03;;
840;SDS011;406;48.566;13.450;2023-03-19T15:26:56;6.87;;;6.00;;
840;SDS011;406;48.566;13.450;2023-03-19T15:29:29;8.20;;;7.17;;
840;SDS011;406;48.566;13.450;2023-03-19T15:31:59;8.50;;;6.50;;
840;SDS011;406;48.566;13.450;2023-03-19T15:34:31;10.23;;;6.97;;
840;SDS011;406;48.566;13.450;2023-03-19T15:37:00;7.40;;;6.70;;
840;SDS011;406;48.566;13.450;2023-03-19T15:39:28;9.80;;;6.67;;
840;SDS011;406;48.566;13.450;2023-03-19T15:41:59;10.43;;;7.97;;
840;SDS011;406;48.566;13.450;2023-03-19T15:44:29;6.67;;;5.93;;
840;SDS011;406;48.566;13.450;2023-03-19T15:46:59;6.93;;;5.90;;
840;SDS011;406;48.566;13.450;2023-03-19T15:49:34;8.30;;;6.13;;
840;SDS011;406;48.566;13.450;2023-03-19T15:52:04;7.67;;;6.87;;
840;SDS011;406;48.566;13.450;2023-03-19T15:54:32;7.27;;;6.57;;
840;SDS011;406;48.566;13.450;2023-03-19T15:56:59;8.17;;;6.30;;
840;SDS011;406;48.566;13.450;2023-03-19T15:59:26;7.10;;;5.87;;
840;SDS011;406;48.566;13.450;2023-03-19T16:01:56;6.23;;;5.50;;
840;SDS011;406;48.566;13.450;2023-03-19T16:04:26;6.67;;;5.97;;
840;SDS011;406;48.566;13.450;2023-03-19T16:06:55;8.60;;;5.50;;
840;SDS011;406;48.566;13.450;2023-03-19T16:11:55;7.80;;;6.30;;
840;SDS011;406;48.566;13.450;2023-03-19T16:14:23;5.23;;;4.73;;
840;SDS011;406;48.566;13.450;2023-03-19T16:17:00;5.37;;;4.40;;
840;SDS011;406;48.566;13.450;2023-03-19T16:19:35;7.83;;;5.90;;
840;SDS011;406;48.566;13.450;2023-03-19T16:22:13;5.00;;;3.60;;
840;SDS011;406;48.566;13.450;2023-03-19T16:24:42;8.13;;;4.00;;
840;SDS011;406;48.566;13.450;2023-03-19T16:27:11;4.37;;;3.97;;
840;SDS011;406;48.566;13.450;2023-03-19T16:29:45;6.10;;;4.60;;
840;SDS011;406;48.566;13.450;2023-03-19T16:32:18;4.57;;;4.10;;
840;SDS011;406;48.566;13.450;2023-03-19T16:34:46;5.87;;;4.80;;
840;SDS011;406;48.566;13.450;2023-03-19T16:37:30;4.77;;;4.03;;
840;SDS011;406;48.566;13.450;2023-03-19T16:42:39;5.20;;;3.70;;
840;SDS011;406;48.566;13.450;2023-03-19T16:47:49;4.87;;;4.20;;
840;SDS011;406;48.566;13.450;2023-03-19T16:50:18;5.50;;;4.27;;
840;SDS011;406;48.566;13.450;2023-03-19T16:52:46;4.20;;;3.80;;
840;SDS011;406;48.566;13.450;2023-03-19T16:57:50;6.33;;;4.80;;
840;SDS011;406;48.566;13.450;2023-03-19T17:00:24;7.93;;;5.10;;
840;SDS011;406;48.566;13.450;2023-03-19T17:02:51;6.70;;;5.30;;
840;SDS011;406;48.566;13.450;2023-03-19T17:05:21;7.43;;;5.10;;
840;SDS011;406;48.566;13.450;2023-03-19T17:07:47;4.10;;;3.70;;
840;SDS011;406;48.566;13.450;2023-03-19T17:10:16;6.00;;;4.50;;
840;SDS011;406;48.566;13.450;2023-03-19T17:12:46;5.80;;;4.77;;
840;SDS011;406;48.566;13.450;2023-03-19T17:15:25;5.83;;;4.80;;
840;SDS011;406;48.566;13.450;2023-03-19T17:17:54;5.10;;;4.60;;
840;SDS011;406;48.566;13.450;2023-03-19T17:20:21;6.70;;;4.60;;
840;SDS011;406;48.566;13.450;2023-03-19T17:22:49;5.97;;;4.70;;
840;SDS011;406;48.566;13.450;2023-03-19T17:25:16;6.37;;;4.50;;